Time;durP1;ratioP1;P1;durP2;ratioP2;P2;SDS_P1;SDS_P2;PMS_P1;PMS_P2;Temp;Humidity;BMP_temperature;BMP_pressure;BME280_temperature;BME280_humidity;BME280_pressure;Samples;Min_cycle;Max_cycle;Signal;HPM_P1;HPM_P2
2023/05/10 00:02:02;;;;;;;4.27;3.60;;;;;;;;;;4392660;32;315476;-90
2023/05/10 00:04:38;;;;;;;4.97;3.63;;;;;;;;;;4392509;32;316480;-90
2023/05/10 00:07:06;;;;;;;4.30;3.30;;;;;;;;;;4402463;32;316324;-90
2023/05/10 00:09:41;;;;;;;3.33;3.00;;;;;;;;;;4378889;32;316542;-90
2023/05/10 00:12:11;;;;;;;3.63;3.30;;;;;;;;;;4377974;32;316497;-91
2023/05/10 00:14:40;;;;;;;2.83;2.63;;;;;;;;;;4386073;32;316910;-90
2023/05/10 00:17:07;;;;;;;7.57;2.93;;;;;;;;;;4370594;32;316397;-90
2023/05/10 00:19:34;;;;;;;2.87;2.27;;;;;;;;;;4392139;32;316464;-90
2023/05/10 00:22:01;;;;;;;3.73;2.73;;;;;;;;;;4388917;32;316856;-90
2023/05/10 00:24:34;;;;;;;3.50;2.70;;;;;;;;;;4380031;32;316413;-90
2023/05/10 00:27:03;;;;;;;1.93;1.67;;;;;;;;;;4403832;32;316399;-91
2023/05/10 00:29:33;;;;;;;2.13;1.93;;;;;;;;;;4360479;32;316697;-91
2023/05/10 00:32:00;;;;;;;3.33;2.20;;;;;;;;;;4364317;32;316241;-90
2023/05/10 00:34:27;;;;;;;1.70;1.43;;;;;;;;;;4400240;32;316494;-91
2023/05/10 00:36:54;;;;;;;2.30;1.70;;;;;;;;;;4381882;32;314897;-90
2023/05/10 00:39:22;;;;;;;2.03;1.50;;;;;;;;;;4405027;32;315090;-90
2023/05/10 00:41:49;;;;;;;2.17;1.00;;;;;;;;;;4406401;32;315094;-90
2023/05/10 00:44:16;;;;;;;2.50;1.57;;;;;;;;;;4393907;32;316019;-90
2023/05/10 00:46:47;;;;;;;1.53;1.40;;;;;;;;;;4399600;32;316046;-90
2023/05/10 00:49:14;;;;;;;4.67;1.73;;;;;;;;;;4410621;32;315103;-90
2023/05/10 00:51:42;;;;;;;1.13;1.03;;;;;;;;;;4384358;32;316378;-89
2023/05/10 00:54:12;;;;;;;1.50;1.30;;;;;;;;;;4395692;32;316367;-91
2023/05/10 00:56:40;;;;;;;1.20;1.10;;;;;;;;;;4395933;32;316271;-91
2023/05/10 00:59:08;;;;;;;17.90;9.07;;;;;;;;;;4377431;32;316334;-90
2023/05/10 01:01:36;;;;;;;49.07;24.53;;;;;;;;;;4393685;32;317706;-90
2023/05/10 01:04:06;;;;;;;85.80;40.20;;;;;;;;;;4401759;32;318554;-89
2023/05/10 01:06:34;;;;;;;54.17;31.53;;;;;;;;;;4378719;32;318595;-90
2023/05/10 01:09:02;;;;;;;50.73;31.20;;;;;;;;;;4384041;32;318632;-90
2023/05/10 01:11:32;;;;;;;63.80;41.80;;;;;;;;;;4360357;32;318984;-90
2023/05/10 01:14:03;;;;;;;22.80;17.17;;;;;;;;;;4373625;32;318601;-90
2023/05/10 01:16:37;;;;;;;9.50;7.80;;;;;;;;;;4377032;32;318624;-90
2023/05/10 01:19:12;;;;;;;3.93;2.67;;;;;;;;;;4388747;32;316436;-90
2023/05/10 01:21:49;;;;;;;2.57;2.00;;;;;;;;;;4364597;32;316571;-90
2023/05/10 01:24:57;;;;;;;1.90;1.60;;;;;;;;;;4374495;32;315477;-90
2023/05/10 01:27:48;;;;;;;2.37;1.40;;;;;;;;;;4337776;32;416845;-89
2023/05/10 01:31:05;;;;;;;3.23;2.00;;;;;;;;;;4373030;32;316466;-90
2023/05/10 01:33:40;;;;;;;4.07;1.43;;;;;;;;;;4380258;32;416544;-90
2023/05/10 01:36:14;;;;;;;2.17;1.60;;;;;;;;;;4393414;32;316442;-90
2023/05/10 01:38:50;;;;;;;2.00;1.57;;;;;;;;;;4383098;32;316262;-89
2023/05/10 01:41:21;;;;;;;3.40;1.60;;;;;;;;;;4401721;32;315107;-87
2023/05/10 01:43:54;;;;;;;1.83;1.30;;;;;;;;;;4377186;32;387892;-86
2023/05/10 01:46:29;;;;;;;6.43;1.40;;;;;;;;;;4348825;32;316533;-91
2023/05/10 01:49:01;;;;;;;3.90;1.50;;;;;;;;;;4395981;32;316571;-89
2023/05/10 01:51:42;;;;;;;1.17;1.07;;;;;;;;;;4384538;32;316555;-90
2023/05/10 01:54:13;;;;;;;2.17;1.23;;;;;;;;;;4375476;32;316233;-89
2023/05/10 01:56:42;;;;;;;3.07;1.60;;;;;;;;;;4367449;32;316339;-90
2023/05/10 01:59:16;;;;;;;1.20;1.10;;;;;;;;;;4379181;32;316500;-88
2023/05/10 02:01:45;;;;;;;2.77;1.20;;;;;;;;;;4365512;32;341490;-90
2023/05/10 02:04:17;;;;;;;1.80;1.47;;;;;;;;;;4388133;32;327371;-89
2023/05/10 02:06:49;;;;;;;1.50;1.20;;;;;;;;;;4378626;32;316340;-90
2023/05/10 02:09:18;;;;;;;1.77;1.27;;;;;;;;;;4381829;32;316324;-89
2023/05/10 02:11:51;;;;;;;3.23;1.27;;;;;;;;;;4384845;32;387094;-90
2023/05/10 02:14:20;;;;;;;2.03;1.27;;;;;;;;;;4390977;32;316645;-91
2023/05/10 02:16:49;;;;;;;3.67;1.53;;;;;;;;;;4381720;32;388124;-88
2023/05/10 02:19:21;;;;;;;1.53;1.13;;;;;;;;;;4395123;32;316462;-89
2023/05/10 02:21:51;;;;;;;1.57;1.40;;;;;;;;;;4357072;32;419064;-90
2023/05/10 02:24:19;;;;;;;2.17;1.40;;;;;;;;;;4405623;32;328179;-90
2023/05/10 02:26:48;;;;;;;1.23;1.13;;;;;;;;;;4378217;32;389572;-88
2023/05/10 02:29:17;;;;;;;1.43;1.13;;;;;;;;;;4390700;32;316546;-90
2023/05/10 02:31:48;;;;;;;1.57;1.30;;;;;;;;;;4395465;32;316319;-89
2023/05/10 02:34:18;;;;;;;1.77;1.60;;;;;;;;;;4405956;32;316576;-91
2023/05/10 02:36:46;;;;;;;2.60;1.20;;;;;;;;;;4390970;32;416221;-90
2023/05/10 02:39:15;;;;;;;1.20;1.10;;;;;;;;;;4403412;32;316386;-89
2023/05/10 02:41:43;;;;;;;2.77;1.47;;;;;;;;;;4372670;32;316318;-90
2023/05/10 02:44:12;;;;;;;1.40;1.23;;;;;;;;;;4388091;32;316307;-89
2023/05/10 02:46:43;;;;;;;2.20;1.83;;;;;;;;;;4394772;32;316689;-90
2023/05/10 02:49:10;;;;;;;4.17;1.47;;;;;;;;;;4405030;32;316558;-90
2023/05/10 02:51:44;;;;;;;2.13;1.70;;;;;;;;;;4361073;32;316678;-89
2023/05/10 02:54:17;;;;;;;1.33;1.13;;;;;;;;;;4399220;32;316268;-89
2023/05/10 02:56:59;;;;;;;1.40;1.20;;;;;;;;;;4387216;32;316769;-89
2023/05/10 02:59:26;;;;;;;3.50;1.37;;;;;;;;;;4374257;32;316482;-89
2023/05/10 03:01:53;;;;;;;1.90;1.50;;;;;;;;;;4391253;32;316205;-90
2023/05/10 03:04:20;;;;;;;3.50;1.43;;;;;;;;;;4379900;32;316497;-90
2023/05/10 03:06:49;;;;;;;6.50;1.40;;;;;;;;;;4404405;32;316544;-89
2023/05/10 03:09:16;;;;;;;2.67;1.70;;;;;;;;;;4404570;32;316520;-90
2023/05/10 03:11:52;;;;;;;5.53;1.70;;;;;;;;;;4379911;32;340150;-90
2023/05/10 03:14:36;;;;;;;4.50;1.90;;;;;;;;;;4383107;32;316519;-92
2023/05/10 03:17:11;;;;;;;7.03;2.40;;;;;;;;;;4385740;32;416530;-90
2023/05/10 03:19:47;;;;;;;4.33;2.60;;;;;;;;;;4380150;32;317565;-90
2023/05/10 03:22:22;;;;;;;4.97;3.10;;;;;;;;;;4390360;32;316400;-90
2023/05/10 03:24:50;;;;;;;12.57;3.43;;;;;;;;;;4391498;32;419488;-90
2023/05/10 03:27:18;;;;;;;6.40;2.17;;;;;;;;;;4402445;32;331951;-90
2023/05/10 03:29:46;;;;;;;7.07;2.00;;;;;;;;;;4378921;32;355517;-90
2023/05/10 03:32:14;;;;;;;5.23;2.50;;;;;;;;;;4403461;32;316512;-89
2023/05/10 03:34:43;;;;;;;8.80;2.80;;;;;;;;;;4378547;32;316944;-90
2023/05/10 03:37:11;;;;;;;13.73;3.40;;;;;;;;;;4403763;32;316499;-89
2023/05/10 03:39:40;;;;;;;13.63;3.17;;;;;;;;;;4393639;32;317556;-90
2023/05/10 03:42:07;;;;;;;9.50;3.80;;;;;;;;;;4377889;32;317517;-91
2023/05/10 03:44:37;;;;;;;10.90;3.33;;;;;;;;;;4393517;32;316856;-91
2023/05/10 03:47:12;;;;;;;4.07;2.73;;;;;;;;;;4389051;32;317570;-89
2023/05/10 03:49:39;;;;;;;10.77;3.67;;;;;;;;;;4394276;32;328790;-91
2023/05/10 03:52:09;;;;;;;7.07;3.07;;;;;;;;;;4389665;32;331955;-91
2023/05/10 03:54:36;;;;;;;12.93;3.80;;;;;;;;;;4394255;32;316503;-91
2023/05/10 03:57:08;;;;;;;6.67;2.87;;;;;;;;;;4403698;32;317532;-92
2023/05/10 03:59:35;;;;;;;7.03;3.17;;;;;;;;;;4379639;32;316477;-91
2023/05/10 04:02:02;;;;;;;8.33;2.83;;;;;;;;;;4377694;32;316379;-91
2023/05/10 04:04:29;;;;;;;10.37;2.90;;;;;;;;;;4380631;32;316887;-90
2023/05/10 04:06:59;;;;;;;9.37;3.70;;;;;;;;;;4384735;32;317321;-90
2023/05/10 04:09:26;;;;;;;12.03;3.17;;;;;;;;;;4390642;32;316407;-90
2023/05/10 04:11:53;;;;;;;16.30;3.97;;;;;;;;;;4403144;32;317782;-90
2023/05/10 04:14:23;;;;;;;9.00;2.93;;;;;;;;;;4374276;32;359072;-89
2023/05/10 04:16:50;;;;;;;10.57;3.60;;;;;;;;;;4370817;32;346663;-90
2023/05/10 04:19:18;;;;;;;15.67;3.70;;;;;;;;;;4375471;32;317440;-90
2023/05/10 04:21:46;;;;;;;12.30;3.43;;;;;;;;;;4402203;32;317360;-90
2023/05/10 04:24:13;;;;;;;12.17;4.07;;;;;;;;;;4394006;32;317485;-90
2023/05/10 04:26:42;;;;;;;17.07;3.97;;;;;;;;;;4403548;32;317535;-90
2023/05/10 04:29:11;;;;;;;10.67;4.50;;;;;;;;;;4403676;32;317560;-90
2023/05/10 04:31:40;;;;;;;18.83;4.37;;;;;;;;;;4373858;32;420956;-90
2023/05/10 04:34:11;;;;;;;9.03;4.63;;;;;;;;;;4398309;32;339027;-90
2023/05/10 04:36:40;;;;;;;15.57;3.70;;;;;;;;;;4361585;32;383001;-90
2023/05/10 04:39:15;;;;;;;12.77;4.43;;;;;;;;;;4385899;32;317239;-90
2023/05/10 04:41:54;;;;;;;9.83;2.87;;;;;;;;;;4359488;32;417474;-88
2023/05/10 04:44:21;;;;;;;5.63;3.53;;;;;;;;;;4378824;32;317086;-91
2023/05/10 04:46:49;;;;;;;10.67;3.57;;;;;;;;;;4388665;32;316730;-90
2023/05/10 04:49:17;;;;;;;21.80;4.33;;;;;;;;;;4390196;32;341719;-92
2023/05/10 04:51:44;;;;;;;11.93;4.83;;;;;;;;;;4402888;32;327156;-88
2023/05/10 04:54:11;;;;;;;13.90;3.83;;;;;;;;;;4402312;32;316341;-90
2023/05/10 04:56:43;;;;;;;21.50;5.83;;;;;;;;;;4373879;32;417122;-91
2023/05/10 04:59:12;;;;;;;15.73;5.63;;;;;;;;;;4399405;32;318082;-92
2023/05/10 05:01:39;;;;;;;21.13;5.57;;;;;;;;;;4377818;32;388710;-89
2023/05/10 05:04:08;;;;;;;23.03;5.67;;;;;;;;;;4403679;32;317491;-91
2023/05/10 05:06:35;;;;;;;23.77;6.23;;;;;;;;;;4392040;32;317434;-90
2023/05/10 05:09:02;;;;;;;16.90;5.80;;;;;;;;;;4404512;32;317183;-90
2023/05/10 05:11:38;;;;;;;13.07;5.33;;;;;;;;;;4383626;32;319453;-91
2023/05/10 05:14:05;;;;;;;22.60;6.03;;;;;;;;;;4362958;32;317329;-89
2023/05/10 05:16:35;;;;;;;17.43;5.13;;;;;;;;;;4378728;32;359373;-88
2023/05/10 05:19:03;;;;;;;16.67;4.80;;;;;;;;;;4404788;32;317477;-89
2023/05/10 05:21:48;;;;;;;25.90;6.30;;;;;;;;;;4382874;32;324837;-90
2023/05/10 05:24:20;;;;;;;14.17;5.00;;;;;;;;;;4395343;32;317544;-90
2023/05/10 05:26:48;;;;;;;27.07;6.07;;;;;;;;;;4406948;32;316425;-90
2023/05/10 05:29:16;;;;;;;18.33;4.80;;;;;;;;;;4376683;32;317623;-90
2023/05/10 05:31:47;;;;;;;17.63;5.47;;;;;;;;;;4385476;32;317209;-91
2023/05/10 05:34:15;;;;;;;37.93;6.73;;;;;;;;;;4381004;32;325226;-92
2023/05/10 05:36:43;;;;;;;16.83;4.50;;;;;;;;;;4400639;32;317749;-91
2023/05/10 05:39:26;;;;;;;21.80;5.80;;;;;;;;;;4386725;32;318093;-91
2023/05/10 05:42:02;;;;;;;23.93;4.97;;;;;;;;;;4369294;32;417109;-91
2023/05/10 05:44:29;;;;;;;18.17;5.57;;;;;;;;;;4363412;32;317604;-91
2023/05/10 05:46:57;;;;;;;11.60;4.90;;;;;;;;;;4405461;32;331448;-90
2023/05/10 05:49:23;;;;;;;21.63;4.97;;;;;;;;;;4363050;32;317634;-89
2023/05/10 05:51:52;;;;;;;25.03;10.80;;;;;;;;;;4406154;32;316362;-90
2023/05/10 05:54:19;;;;;;;13.17;5.10;;;;;;;;;;4395634;32;319151;-89
2023/05/10 05:56:52;;;;;;;11.13;5.80;;;;;;;;;;4379321;32;317217;-89
2023/05/10 05:59:19;;;;;;;15.17;5.47;;;;;;;;;;4383688;32;317378;-89
2023/05/10 06:01:46;;;;;;;11.50;4.93;;;;;;;;;;4392290;32;317834;-89
2023/05/10 06:06:54;;;;;;;14.80;5.93;;;;;;;;;;4404667;32;316631;-90
2023/05/10 06:09:26;;;;;;;11.23;4.70;;;;;;;;;;4362024;32;317741;-90
2023/05/10 06:11:58;;;;;;;12.80;5.23;;;;;;;;;;4392527;32;317672;-92
2023/05/10 06:14:29;;;;;;;11.40;5.40;;;;;;;;;;4380949;32;317329;-89
2023/05/10 06:16:59;;;;;;;10.93;5.23;;;;;;;;;;4392846;32;317635;-90
2023/05/10 06:19:27;;;;;;;11.73;5.77;;;;;;;;;;4377169;32;316569;-90
2023/05/10 06:21:55;;;;;;;12.40;6.00;;;;;;;;;;4380797;32;338098;-91
2023/05/10 06:24:26;;;;;;;19.87;5.83;;;;;;;;;;4378389;32;317681;-90
2023/05/10 06:26:59;;;;;;;10.63;6.20;;;;;;;;;;4381062;32;317460;-90
2023/05/10 06:29:34;;;;;;;12.43;5.30;;;;;;;;;;4386142;32;317749;-90
2023/05/10 06:32:02;;;;;;;14.50;4.83;;;;;;;;;;4405663;32;317703;-90
2023/05/10 06:34:29;;;;;;;16.10;5.23;;;;;;;;;;4381227;32;317606;-91
2023/05/10 06:36:56;;;;;;;11.17;5.07;;;;;;;;;;4412447;32;344634;-89
2023/05/10 06:39:27;;;;;;;11.13;4.47;;;;;;;;;;4371314;32;354870;-90
2023/05/10 06:41:58;;;;;;;13.50;4.07;;;;;;;;;;4386981;32;317466;-90
2023/05/10 06:44:26;;;;;;;8.53;4.77;;;;;;;;;;4381508;32;317721;-90
2023/05/10 06:46:55;;;;;;;12.00;5.70;;;;;;;;;;4381126;32;344110;-91
2023/05/10 06:49:22;;;;;;;6.07;3.97;;;;;;;;;;4369714;32;340587;-91
2023/05/10 06:51:50;;;;;;;10.07;5.30;;;;;;;;;;4401498;32;317085;-91
2023/05/10 06:54:17;;;;;;;11.33;4.17;;;;;;;;;;4395348;32;317797;-90
2023/05/10 06:56:44;;;;;;;4.43;3.33;;;;;;;;;;4406882;32;317721;-90
2023/05/10 06:59:14;;;;;;;10.03;4.20;;;;;;;;;;4407468;32;316420;-89
2023/05/10 07:01:42;;;;;;;5.43;3.83;;;;;;;;;;4393353;32;419985;-92
2023/05/10 07:04:09;;;;;;;8.10;4.70;;;;;;;;;;4390992;32;316909;-91
2023/05/10 07:06:37;;;;;;;5.73;4.03;;;;;;;;;;4410131;32;315126;-90
2023/05/10 07:09:05;;;;;;;7.27;4.40;;;;;;;;;;4420346;32;315145;-89
2023/05/10 07:11:32;;;;;;;6.67;4.37;;;;;;;;;;4394586;32;316003;-90
2023/05/10 07:13:59;;;;;;;6.90;5.10;;;;;;;;;;4419533;32;315180;-88
2023/05/10 07:16:31;;;;;;;9.23;4.80;;;;;;;;;;4403268;32;316622;-90
2023/05/10 07:19:02;;;;;;;7.97;4.63;;;;;;;;;;4397440;32;316683;-89
2023/05/10 07:21:35;;;;;;;5.13;4.30;;;;;;;;;;4388515;32;335714;-89
2023/05/10 07:24:02;;;;;;;10.57;5.37;;;;;;;;;;4413134;32;317057;-89
2023/05/10 07:26:30;;;;;;;8.03;5.07;;;;;;;;;;4404088;32;317424;-90
2023/05/10 07:28:56;;;;;;;10.33;5.27;;;;;;;;;;4419145;32;323410;-90
2023/05/10 07:31:26;;;;;;;9.63;5.63;;;;;;;;;;4401535;32;316187;-91
2023/05/10 07:33:57;;;;;;;15.13;5.67;;;;;;;;;;4407724;32;315258;-89
2023/05/10 07:36:25;;;;;;;18.63;5.83;;;;;;;;;;4408246;32;347695;-91
2023/05/10 07:38:57;;;;;;;12.70;6.17;;;;;;;;;;4413276;32;316405;-90
2023/05/10 07:41:27;;;;;;;18.47;5.30;;;;;;;;;;4399844;32;316221;-90
2023/05/10 07:43:54;;;;;;;21.17;6.20;;;;;;;;;;4404223;32;317127;-91
2023/05/10 07:46:21;;;;;;;27.60;6.97;;;;;;;;;;4398045;32;317655;-90
2023/05/10 07:48:49;;;;;;;31.53;6.50;;;;;;;;;;4396358;32;317337;-89
2023/05/10 07:51:20;;;;;;;19.97;9.27;;;;;;;;;;4377048;32;317500;-89
2023/05/10 07:53:47;;;;;;;17.60;7.97;;;;;;;;;;4391831;32;317351;-89
2023/05/10 07:56:29;;;;;;;19.63;6.40;;;;;;;;;;4394838;32;317724;-89
2023/05/10 07:59:00;;;;;;;20.30;7.03;;;;;;;;;;4391232;32;317354;-92
2023/05/10 08:01:27;;;;;;;14.63;8.47;;;;;;;;;;4394806;32;349201;-88
2023/05/10 08:03:54;;;;;;;24.40;5.93;;;;;;;;;;4405324;32;317661;-89
2023/05/10 08:08:53;;;;;;;17.37;7.17;;;;;;;;;;4388925;32;317221;-91
2023/05/10 08:11:21;;;;;;;14.43;5.90;;;;;;;;;;4369390;32;317469;-92
2023/05/10 08:13:50;;;;;;;19.83;6.90;;;;;;;;;;4377177;32;317597;-90
2023/05/10 08:16:19;;;;;;;24.47;8.57;;;;;;;;;;4366497;32;317508;-90
2023/05/10 08:18:50;;;;;;;15.67;7.10;;;;;;;;;;4373553;32;317635;-90
2023/05/10 08:21:17;;;;;;;26.20;7.27;;;;;;;;;;4365590;32;317394;-91
2023/05/10 08:23:44;;;;;;;17.13;7.60;;;;;;;;;;4374453;32;317625;-92
2023/05/10 08:26:17;;;;;;;12.53;6.43;;;;;;;;;;4372907;32;317425;-90
2023/05/10 08:28:45;;;;;;;20.80;6.77;;;;;;;;;;4362176;32;417009;-92
2023/05/10 08:31:14;;;;;;;22.67;7.73;;;;;;;;;;4378870;32;316913;-90
2023/05/10 08:33:42;;;;;;;15.03;7.27;;;;;;;;;;4364850;32;416948;-92
2023/05/10 08:36:10;;;;;;;21.73;8.37;;;;;;;;;;4372034;32;317777;-92
2023/05/10 08:38:40;;;;;;;14.53;5.40;;;;;;;;;;4347495;32;360126;-89
2023/05/10 08:41:11;;;;;;;22.47;5.50;;;;;;;;;;4370584;32;317381;-89
2023/05/10 08:43:45;;;;;;;27.10;5.70;;;;;;;;;;4367986;32;336411;-90
2023/05/10 08:46:17;;;;;;;12.77;6.13;;;;;;;;;;4377216;32;317762;-91
2023/05/10 08:48:46;;;;;;;18.63;8.33;;;;;;;;;;4354477;32;419851;-91
2023/05/10 08:51:17;;;;;;;13.10;6.33;;;;;;;;;;4376589;32;317559;-91
2023/05/10 08:53:45;;;;;;;12.07;6.90;;;;;;;;;;4366198;32;419552;-91
2023/05/10 08:56:18;;;;;;;12.23;7.17;;;;;;;;;;4382287;32;317551;-89
2023/05/10 08:58:54;;;;;;;20.83;8.53;;;;;;;;;;4364220;32;420166;-89
2023/05/10 09:01:23;;;;;;;12.90;7.53;;;;;;;;;;4367107;32;317825;-92
2023/05/10 09:03:54;;;;;;;13.67;7.77;;;;;;;;;;4371656;32;317272;-91
2023/05/10 09:06:23;;;;;;;15.93;8.47;;;;;;;;;;4359409;32;317418;-90
2023/05/10 09:08:52;;;;;;;20.10;7.23;;;;;;;;;;4360306;32;353677;-90
2023/05/10 09:11:21;;;;;;;13.90;7.07;;;;;;;;;;4365065;32;317773;-92
2023/05/10 09:13:51;;;;;;;17.47;7.57;;;;;;;;;;4376335;32;317684;-90
2023/05/10 09:16:21;;;;;;;18.93;10.23;;;;;;;;;;4371428;32;317483;-90
2023/05/10 09:18:52;;;;;;;13.53;8.37;;;;;;;;;;4370447;32;318144;-91
2023/05/10 09:21:20;;;;;;;13.83;6.77;;;;;;;;;;4363519;32;317538;-90
2023/05/10 09:23:49;;;;;;;11.27;6.70;;;;;;;;;;4378304;32;317685;-91
2023/05/10 09:26:17;;;;;;;16.37;8.77;;;;;;;;;;4369369;32;317319;-92
2023/05/10 09:29:02;;;;;;;11.60;7.97;;;;;;;;;;4374643;32;317494;-91
2023/05/10 09:31:45;;;;;;;12.50;8.10;;;;;;;;;;4366540;32;317617;-91
2023/05/10 09:34:18;;;;;;;15.17;7.73;;;;;;;;;;4375874;32;317206;-90
2023/05/10 09:36:54;;;;;;;17.50;8.23;;;;;;;;;;4361773;32;417021;-92
2023/05/10 09:39:32;;;;;;;14.87;9.57;;;;;;;;;;4366379;32;317315;-89
2023/05/10 09:42:01;;;;;;;11.50;6.47;;;;;;;;;;4380115;32;317424;-90
2023/05/10 09:44:29;;;;;;;13.53;6.30;;;;;;;;;;4364572;32;342635;-90
2023/05/10 09:47:00;;;;;;;10.20;7.07;;;;;;;;;;4374849;32;317351;-92
2023/05/10 09:49:32;;;;;;;18.80;6.47;;;;;;;;;;4367286;32;317582;-91
2023/05/10 09:52:04;;;;;;;13.27;7.13;;;;;;;;;;4374369;32;316406;-91
2023/05/10 09:54:36;;;;;;;11.03;7.43;;;;;;;;;;4366897;32;317300;-90
2023/05/10 09:57:04;;;;;;;14.13;8.20;;;;;;;;;;4379762;32;317365;-90
2023/05/10 09:59:36;;;;;;;9.30;6.93;;;;;;;;;;4354223;32;317356;-91
2023/05/10 10:02:03;;;;;;;17.97;6.93;;;;;;;;;;4385234;32;316818;-89
2023/05/10 10:04:32;;;;;;;14.37;7.63;;;;;;;;;;4366042;32;317493;-92
2023/05/10 10:07:01;;;;;;;7.20;6.30;;;;;;;;;;4376505;32;317586;-91
2023/05/10 10:09:31;;;;;;;7.80;5.17;;;;;;;;;;4368488;32;316279;-89
2023/05/10 10:11:58;;;;;;;11.97;5.30;;;;;;;;;;4398920;32;316170;-89
2023/05/10 10:14:26;;;;;;;9.57;6.23;;;;;;;;;;4374553;32;317710;-92
2023/05/10 10:16:55;;;;;;;9.33;5.17;;;;;;;;;;4391243;32;316401;-89
2023/05/10 10:19:23;;;;;;;10.60;5.10;;;;;;;;;;4394669;32;316496;-90
2023/05/10 10:21:51;;;;;;;10.13;5.10;;;;;;;;;;4403898;32;317695;-91
2023/05/10 10:24:24;;;;;;;10.93;5.23;;;;;;;;;;4380063;32;317289;-92
2023/05/10 10:27:02;;;;;;;7.80;4.60;;;;;;;;;;4383179;32;317318;-91
2023/05/10 10:29:45;;;;;;;6.87;5.00;;;;;;;;;;4380648;32;316295;-91
2023/05/10 10:32:29;;;;;;;14.23;5.80;;;;;;;;;;4403157;32;316310;-91
2023/05/10 10:34:57;;;;;;;11.77;7.20;;;;;;;;;;4376434;32;390075;-89
2023/05/10 10:37:42;;;;;;;6.80;5.60;;;;;;;;;;4396411;32;317494;-91
2023/05/10 10:40:24;;;;;;;12.97;7.33;;;;;;;;;;4392291;32;316425;-91
2023/05/10 10:42:53;;;;;;;14.47;7.70;;;;;;;;;;4392931;32;417816;-90
2023/05/10 10:45:22;;;;;;;13.03;10.97;;;;;;;;;;4378385;32;325634;-91
2023/05/10 10:47:55;;;;;;;14.80;11.17;;;;;;;;;;4404189;32;318567;-91
2023/05/10 10:50:27;;;;;;;20.60;12.17;;;;;;;;;;4380678;32;318680;-92
2023/05/10 10:53:12;;;;;;;16.00;12.27;;;;;;;;;;4406032;32;347559;-92
2023/05/10 10:55:47;;;;;;;16.67;11.60;;;;;;;;;;4390444;32;318296;-93
2023/05/10 10:58:33;;;;;;;15.40;10.87;;;;;;;;;;4393556;32;318554;-90
2023/05/10 11:01:16;;;;;;;14.70;10.13;;;;;;;;;;4404561;32;318224;-91
2023/05/10 11:04:17;;;;;;;21.90;14.93;;;;;;;;;;4375142;32;421976;-91
2023/05/10 11:06:44;;;;;;;17.50;13.17;;;;;;;;;;4363122;32;422388;-89
2023/05/10 11:09:14;;;;;;;17.93;13.93;;;;;;;;;;4358381;32;318655;-90
2023/05/10 11:11:54;;;;;;;15.33;9.70;;;;;;;;;;4399191;32;318783;-90
2023/05/10 11:14:22;;;;;;;10.23;8.67;;;;;;;;;;4386287;32;317573;-89
2023/05/10 11:19:21;;;;;;;10.33;8.67;;;;;;;;;;4320515;32;317793;-86
2023/05/10 11:21:50;;;;;;;13.17;8.90;;;;;;;;;;4341228;32;318872;-85
2023/05/10 11:24:19;;;;;;;17.83;8.10;;;;;;;;;;4330203;32;318034;-85
2023/05/10 11:26:47;;;;;;;12.87;8.90;;;;;;;;;;4340997;32;317960;-85
2023/05/10 11:29:15;;;;;;;10.47;8.40;;;;;;;;;;4328849;32;395725;-85
2023/05/10 11:31:46;;;;;;;10.07;7.70;;;;;;;;;;4340083;32;317778;-84
2023/05/10 11:34:26;;;;;;;11.70;8.83;;;;;;;;;;4329032;32;379794;-84
2023/05/10 11:36:55;;;;;;;16.87;9.83;;;;;;;;;;4340627;32;317879;-85
2023/05/10 11:39:26;;;;;;;11.47;7.30;;;;;;;;;;4331398;32;323384;-85
2023/05/10 11:41:54;;;;;;;8.17;6.93;;;;;;;;;;4340318;32;317801;-86
2023/05/10 11:44:21;;;;;;;8.87;7.33;;;;;;;;;;4332252;32;316711;-85
2023/05/10 11:46:53;;;;;;;10.10;7.53;;;;;;;;;;4364769;27;316788;-91
2023/05/10 11:49:28;;;;;;;13.40;8.07;;;;;;;;;;4362644;32;317946;-90
2023/05/10 11:52:05;;;;;;;13.27;7.40;;;;;;;;;;4388229;32;317705;-90
2023/05/10 11:54:38;;;;;;;12.20;7.57;;;;;;;;;;4378649;32;317751;-91
2023/05/10 11:57:10;;;;;;;12.30;7.93;;;;;;;;;;4376388;32;317674;-93
2023/05/10 11:59:38;;;;;;;8.60;7.03;;;;;;;;;;4377907;32;317641;-90
2023/05/10 12:02:07;;;;;;;8.90;7.47;;;;;;;;;;4391970;32;316349;-90
2023/05/10 12:04:39;;;;;;;9.80;6.70;;;;;;;;;;4367894;32;316860;-92
2023/05/10 12:07:06;;;;;;;8.33;6.67;;;;;;;;;;4383751;32;316208;-89
2023/05/10 12:09:36;;;;;;;9.57;7.77;;;;;;;;;;4365189;32;341193;-90
2023/05/10 12:12:03;;;;;;;11.63;7.83;;;;;;;;;;4389959;32;316159;-90
2023/05/10 12:14:37;;;;;;;10.23;7.60;;;;;;;;;;4391245;32;317218;-91
2023/05/10 12:17:04;;;;;;;14.37;8.53;;;;;;;;;;4378919;32;317311;-90
2023/05/10 12:19:45;;;;;;;12.57;9.50;;;;;;;;;;4360929;32;317427;-90
2023/05/10 12:22:14;;;;;;;11.67;8.00;;;;;;;;;;4386923;32;326936;-89
2023/05/10 12:24:46;;;;;;;17.77;10.50;;;;;;;;;;4377212;32;417788;-91
2023/05/10 12:27:14;;;;;;;16.60;8.10;;;;;;;;;;4380809;32;318501;-91
2023/05/10 12:29:45;;;;;;;14.20;8.27;;;;;;;;;;4368016;32;417132;-92
2023/05/10 12:32:12;;;;;;;10.57;9.10;;;;;;;;;;4402191;32;316418;-90
2023/05/10 12:34:41;;;;;;;10.90;7.83;;;;;;;;;;4379061;32;415459;-91
2023/05/10 12:37:13;;;;;;;11.10;7.60;;;;;;;;;;4389088;32;316611;-90
2023/05/10 12:42:26;;;;;;;12.07;8.07;;;;;;;;;;4386774;32;315431;-91
2023/05/10 12:44:57;;;;;;;9.83;7.97;;;;;;;;;;4402465;32;316209;-90
2023/05/10 12:47:24;;;;;;;11.40;7.17;;;;;;;;;;4381965;32;328649;-91
2023/05/10 12:49:52;;;;;;;10.50;7.60;;;;;;;;;;4381081;32;319870;-91
2023/05/10 12:59:17;;;;;;;13.93;9.90;;;;;;;;;;4409234;32;316588;-80
2023/05/10 13:01:44;;;;;;;15.77;8.60;;;;;;;;;;4425940;32;318506;-80
2023/05/10 13:04:10;;;;;;;11.60;8.87;;;;;;;;;;4424822;32;318535;-80
2023/05/10 13:06:37;;;;;;;11.63;8.60;;;;;;;;;;4415894;32;318308;-79
2023/05/10 13:09:04;;;;;;;15.13;9.17;;;;;;;;;;4423199;32;318132;-79
2023/05/10 13:11:31;;;;;;;16.90;9.40;;;;;;;;;;4395229;32;317958;-80
2023/05/10 13:13:57;;;;;;;13.83;10.27;;;;;;;;;;4414253;32;317895;-78
2023/05/10 13:16:26;;;;;;;15.17;9.10;;;;;;;;;;4414064;32;319588;-83
2023/05/10 13:18:53;;;;;;;9.10;8.17;;;;;;;;;;4415346;32;318627;-83
2023/05/10 13:21:20;;;;;;;12.83;9.17;;;;;;;;;;4400083;32;317114;-83
2023/05/10 13:23:48;;;;;;;11.27;6.87;;;;;;;;;;4409734;32;318577;-83
2023/05/10 13:26:14;;;;;;;15.30;8.00;;;;;;;;;;4401642;32;318540;-83
2023/05/10 13:28:41;;;;;;;11.43;7.43;;;;;;;;;;4424038;32;341810;-83
2023/05/10 13:31:08;;;;;;;10.37;8.00;;;;;;;;;;4425681;32;318482;-83
2023/05/10 13:33:36;;;;;;;13.73;8.83;;;;;;;;;;4413629;32;318466;-82
2023/05/10 13:36:03;;;;;;;9.87;6.80;;;;;;;;;;4412465;32;318081;-85
2023/05/10 13:38:29;;;;;;;14.03;8.80;;;;;;;;;;4406528;32;316730;-84
2023/05/10 13:40:56;;;;;;;7.87;7.00;;;;;;;;;;4424535;32;320301;-85
2023/05/10 13:43:24;;;;;;;12.60;7.47;;;;;;;;;;4410668;32;346299;-79
2023/05/10 13:45:52;;;;;;;17.97;9.63;;;;;;;;;;4407588;32;318437;-79
2023/05/10 13:48:18;;;;;;;13.87;10.37;;;;;;;;;;4399094;32;318469;-79
2023/05/10 13:50:47;;;;;;;15.83;9.87;;;;;;;;;;4414481;32;319300;-79
2023/05/10 13:53:14;;;;;;;13.53;9.37;;;;;;;;;;4399185;32;318480;-80
2023/05/10 13:59:02;;;;;;;15.53;8.37;;;;;;;;;;4396539;32;389157;-80
2023/05/10 14:01:29;;;;;;;12.67;9.53;;;;;;;;;;4397737;32;352184;-80
2023/05/10 14:03:56;;;;;;;17.13;10.47;;;;;;;;;;4409958;32;317878;-80
2023/05/10 14:06:24;;;;;;;14.17;9.63;;;;;;;;;;4396776;32;319111;-80
2023/05/10 14:08:51;;;;;;;17.27;11.67;;;;;;;;;;4399927;32;317695;-81
2023/05/10 14:11:18;;;;;;;10.90;8.93;;;;;;;;;;4365324;32;319582;-78
2023/05/10 14:13:45;;;;;;;19.43;9.03;;;;;;;;;;4383300;32;318332;-79
2023/05/10 14:16:14;;;;;;;11.97;10.67;;;;;;;;;;4383648;32;317501;-78
2023/05/10 14:18:41;;;;;;;14.07;9.63;;;;;;;;;;4379603;32;418774;-78
2023/05/10 14:21:07;;;;;;;16.67;8.57;;;;;;;;;;4398257;32;318341;-79
2023/05/10 14:23:35;;;;;;;20.07;9.50;;;;;;;;;;4388670;32;318448;-78
2023/05/10 14:26:02;;;;;;;12.00;9.00;;;;;;;;;;4398348;32;318653;-79
2023/05/10 14:28:29;;;;;;;17.70;10.00;;;;;;;;;;4389247;32;318238;-78
2023/05/10 14:30:56;;;;;;;16.63;12.93;;;;;;;;;;4399482;32;318608;-80
2023/05/10 14:33:23;;;;;;;22.43;12.10;;;;;;;;;;4381808;32;319337;-77
2023/05/10 14:35:50;;;;;;;13.43;10.47;;;;;;;;;;4383975;32;319402;-77
2023/05/10 14:38:16;;;;;;;25.17;12.37;;;;;;;;;;4373644;32;319252;-78
2023/05/10 14:40:45;;;;;;;16.80;11.93;;;;;;;;;;4383435;32;319346;-78
2023/05/10 14:43:11;;;;;;;14.50;10.43;;;;;;;;;;4382368;32;319773;-78
2023/05/10 14:45:38;;;;;;;13.20;10.23;;;;;;;;;;4383179;32;420370;-85
2023/05/10 14:48:05;;;;;;;13.63;10.40;;;;;;;;;;4399090;32;319645;-85
2023/05/10 14:50:32;;;;;;;17.87;12.57;;;;;;;;;;4388777;32;319218;-78
2023/05/10 14:53:38;;;;;;;18.83;12.00;;;;;;;;;;4400865;32;319415;-78
2023/05/10 14:56:08;;;;;;;19.47;11.20;;;;;;;;;;4383223;32;419899;-78
2023/05/10 14:58:35;;;;;;;16.20;12.90;;;;;;;;;;4386040;32;319322;-78
2023/05/10 15:01:01;;;;;;;22.20;14.07;;;;;;;;;;4396560;32;319337;-80